Time;durP1;ratioP1;P1;durP2;ratioP2;P2;SDS_P1;SDS_P2;PMS_P1;PMS_P2;Temp;Humidity;BMP_temperature;BMP_pressure;BME280_temperature;BME280_humidity;BME280_pressure;Samples;Min_cycle;Max_cycle;Signal;HPM_P1;HPM_P2
2023/11/03 00:00:52;;;;;;;0.93;0.93;;;;;;;;;;6124112;23;20017;-79
2023/11/03 00:03:18;;;;;;;3.40;1.30;;;;;;;;;;6123059;23;20013;-79
2023/11/03 00:05:44;;;;;;;1.20;1.20;;;;;;;;;;6123544;23;20044;-80
2023/11/03 00:08:10;;;;;;;1.60;1.60;;;;;;;;;;6123811;23;20013;-81
2023/11/03 00:10:37;;;;;;;1.55;1.45;;;;;;;;;;6126068;23;20014;-81
2023/11/03 00:13:03;;;;;;;1.55;1.55;;;;;;;;;;6124733;23;20049;-80
2023/11/03 00:15:29;;;;;;;1.58;1.58;;;;;;;;;;6124429;23;20417;-80
2023/11/03 00:17:56;;;;;;;2.15;2.00;;;;;;;;;;6100987;23;20021;-82
2023/11/03 00:20:23;;;;;;;1.83;1.83;;;;;;;;;;6124369;23;20093;-82
2023/11/03 00:22:49;;;;;;;1.77;1.70;;;;;;;;;;6125530;23;20374;-80
2023/11/03 00:25:16;;;;;;;4.88;1.83;;;;;;;;;;6132422;23;20092;-81
2023/11/03 00:27:46;;;;;;;1.40;1.38;;;;;;;;;;6108919;23;20045;-82
2023/11/03 00:30:12;;;;;;;7.50;1.92;;;;;;;;;;6080583;23;20014;-81
2023/11/03 00:32:38;;;;;;;1.65;1.65;;;;;;;;;;6135558;23;20018;-83
2023/11/03 00:35:08;;;;;;;2.05;1.95;;;;;;;;;;6081707;23;20010;-80
2023/11/03 00:37:38;;;;;;;2.28;2.17;;;;;;;;;;6057431;23;20010;-82
2023/11/03 00:40:04;;;;;;;1.10;1.10;;;;;;;;;;6128207;23;20042;-81
2023/11/03 00:42:31;;;;;;;2.28;2.17;;;;;;;;;;6102863;23;20052;-81
2023/11/03 00:44:57;;;;;;;2.30;2.10;;;;;;;;;;6127308;23;20556;-81
2023/11/03 00:47:24;;;;;;;2.38;2.17;;;;;;;;;;6102786;23;20026;-80
2023/11/03 00:49:50;;;;;;;2.17;2.08;;;;;;;;;;6075301;23;20065;-80
2023/11/03 00:52:16;;;;;;;1.85;1.80;;;;;;;;;;6097033;23;20017;-79
2023/11/03 00:54:42;;;;;;;1.83;1.73;;;;;;;;;;6123161;23;20034;-80
2023/11/03 00:57:08;;;;;;;1.65;1.63;;;;;;;;;;6122392;23;20014;-80
2023/11/03 00:59:34;;;;;;;1.70;1.60;;;;;;;;;;6121479;23;20022;-80
2023/11/03 01:02:01;;;;;;;1.90;1.80;;;;;;;;;;6097140;23;20018;-80
2023/11/03 01:04:27;;;;;;;2.00;1.90;;;;;;;;;;6124008;23;20105;-81
2023/11/03 01:06:54;;;;;;;1.90;1.80;;;;;;;;;;6075413;23;20104;-80
2023/11/03 01:09:22;;;;;;;3.33;1.92;;;;;;;;;;6125023;23;20014;-80
2023/11/03 01:11:47;;;;;;;2.00;1.90;;;;;;;;;;6075389;23;20104;-80
2023/11/03 01:14:14;;;;;;;2.67;1.90;;;;;;;;;;6051752;23;20033;-81
2023/11/03 01:16:41;;;;;;;2.00;1.90;;;;;;;;;;6099675;23;20085;-81
2023/11/03 01:19:09;;;;;;;1.80;1.70;;;;;;;;;;6076997;23;20076;-80
2023/11/03 01:21:39;;;;;;;1.67;1.58;;;;;;;;;;6076501;23;20014;-80
2023/11/03 01:24:10;;;;;;;1.70;1.70;;;;;;;;;;6100635;23;20009;-79
2023/11/03 01:26:37;;;;;;;2.00;1.90;;;;;;;;;;6101348;23;20029;-81
2023/11/03 01:29:04;;;;;;;1.80;1.70;;;;;;;;;;6100794;23;20101;-80
2023/11/03 01:31:31;;;;;;;1.67;1.23;;;;;;;;;;6125178;23;20022;-80
2023/11/03 01:33:57;;;;;;;2.58;1.83;;;;;;;;;;6099540;23;20531;-80
2023/11/03 01:36:23;;;;;;;1.50;1.50;;;;;;;;;;6123929;23;20021;-81
2023/11/03 01:38:49;;;;;;;1.90;1.80;;;;;;;;;;6102561;23;20010;-81
2023/11/03 01:41:15;;;;;;;2.15;2.05;;;;;;;;;;6140603;23;20017;-80
2023/11/03 01:44:05;;;;;;;2.83;2.00;;;;;;;;;;6087549;23;20041;-78
2023/11/03 01:46:33;;;;;;;2.17;1.70;;;;;;;;;;6102504;23;20026;-79
2023/11/03 01:48:59;;;;;;;4.53;2.72;;;;;;;;;;6095725;23;20241;-80
2023/11/03 01:51:25;;;;;;;7.40;2.30;;;;;;;;;;6145037;23;20041;-78
2023/11/03 01:53:51;;;;;;;2.10;2.00;;;;;;;;;;6134602;23;20010;-79
2023/11/03 01:56:17;;;;;;;2.20;2.10;;;;;;;;;;6124574;23;20084;-79
2023/11/03 01:58:43;;;;;;;2.22;2.10;;;;;;;;;;6099564;23;20014;-80
2023/11/03 02:01:09;;;;;;;1.77;1.67;;;;;;;;;;6124642;23;20021;-79
2023/11/03 02:03:35;;;;;;;1.88;1.77;;;;;;;;;;6099414;23;20013;-80
2023/11/03 02:06:03;;;;;;;2.00;1.90;;;;;;;;;;6074915;23;20022;-81
2023/11/03 02:08:28;;;;;;;2.28;2.08;;;;;;;;;;6124762;23;20014;-80
2023/11/03 02:10:54;;;;;;;2.60;1.95;;;;;;;;;;6099089;23;20451;-80
2023/11/03 02:13:21;;;;;;;1.95;1.85;;;;;;;;;;6125983;23;20014;-80
2023/11/03 02:15:47;;;;;;;1.83;1.73;;;;;;;;;;6102316;23;20139;-80
2023/11/03 02:18:17;;;;;;;1.67;1.58;;;;;;;;;;6127273;23;20010;-80
2023/11/03 02:20:43;;;;;;;1.38;1.38;;;;;;;;;;6125545;23;20018;-79
2023/11/03 02:23:10;;;;;;;1.70;1.60;;;;;;;;;;6124721;23;20010;-80
2023/11/03 02:25:36;;;;;;;1.73;1.63;;;;;;;;;;6098932;23;20021;-79
2023/11/03 02:28:03;;;;;;;1.85;1.60;;;;;;;;;;6098375;23;20018;-79
2023/11/03 02:30:29;;;;;;;1.80;1.70;;;;;;;;;;6123755;23;20446;-79
2023/11/03 02:32:55;;;;;;;1.67;1.58;;;;;;;;;;6124203;23;20021;-79
2023/11/03 02:35:21;;;;;;;1.52;1.52;;;;;;;;;;6098082;23;20642;-78
2023/11/03 02:37:47;;;;;;;1.95;1.85;;;;;;;;;;6073507;23;20042;-78
2023/11/03 02:40:13;;;;;;;1.27;1.27;;;;;;;;;;6097970;23;20101;-79
2023/11/03 02:42:40;;;;;;;2.47;1.60;;;;;;;;;;6074057;23;20021;-79
2023/11/03 02:45:06;;;;;;;1.55;1.52;;;;;;;;;;6097892;23;20017;-78
2023/11/03 02:47:32;;;;;;;1.98;1.88;;;;;;;;;;6098492;23;20021;-79
2023/11/03 02:50:00;;;;;;;1.73;1.63;;;;;;;;;;6098321;23;20481;-79
2023/11/03 02:52:26;;;;;;;2.53;1.88;;;;;;;;;;6098182;23;20014;-78
2023/11/03 02:54:53;;;;;;;1.50;1.50;;;;;;;;;;6124848;23;20093;-78
2023/11/03 02:57:19;;;;;;;2.00;1.90;;;;;;;;;;6098623;23;20031;-79
2023/11/03 02:59:45;;;;;;;1.98;1.88;;;;;;;;;;6124142;23;20014;-79
2023/11/03 03:02:11;;;;;;;2.33;2.22;;;;;;;;;;6123572;23;20010;-80
2023/11/03 03:04:37;;;;;;;2.10;2.00;;;;;;;;;;6124774;23;20116;-79
2023/11/03 03:07:03;;;;;;;2.05;1.95;;;;;;;;;;6123888;23;20022;-80
2023/11/03 03:09:29;;;;;;;6.10;5.60;;;;;;;;;;6124054;23;20089;-79
2023/11/03 03:11:55;;;;;;;4.38;4.07;;;;;;;;;;6123375;23;20013;-77
2023/11/03 03:14:21;;;;;;;3.75;3.50;;;;;;;;;;6123173;23;20014;-79
2023/11/03 03:16:47;;;;;;;2.15;2.05;;;;;;;;;;6123485;23;20025;-80
2023/11/03 03:19:13;;;;;;;4.07;3.80;;;;;;;;;;6099036;23;20014;-80
2023/11/03 03:21:39;;;;;;;3.60;2.30;;;;;;;;;;6124182;23;20525;-80
2023/11/03 03:24:05;;;;;;;2.47;2.38;;;;;;;;;;6124517;23;20474;-80
2023/11/03 03:26:31;;;;;;;2.50;2.40;;;;;;;;;;6099189;23;20439;-80
2023/11/03 03:28:57;;;;;;;4.72;4.00;;;;;;;;;;6098677;23;20029;-79
2023/11/03 03:31:23;;;;;;;2.28;2.17;;;;;;;;;;6121110;23;20026;-80
2023/11/03 03:33:49;;;;;;;2.30;2.20;;;;;;;;;;6098861;23;20020;-79
2023/11/03 03:36:15;;;;;;;2.10;2.00;;;;;;;;;;6123059;23;20014;-79
2023/11/03 03:38:42;;;;;;;2.00;1.90;;;;;;;;;;6122874;23;20145;-79
2023/11/03 03:41:12;;;;;;;2.35;2.25;;;;;;;;;;6097493;23;20161;-79
2023/11/03 03:43:39;;;;;;;5.25;4.88;;;;;;;;;;6073343;23;20152;-80
2023/11/03 03:46:05;;;;;;;4.30;3.47;;;;;;;;;;6098891;23;20042;-78
2023/11/03 03:48:31;;;;;;;4.82;4.43;;;;;;;;;;6074393;23;20018;-79
2023/11/03 03:50:57;;;;;;;4.03;3.72;;;;;;;;;;6097749;23;20089;-79
2023/11/03 03:53:23;;;;;;;3.20;3.00;;;;;;;;;;6122802;23;20414;-80
2023/11/03 03:55:49;;;;;;;2.63;2.53;;;;;;;;;;6097875;23;20139;-78
2023/11/03 03:58:15;;;;;;;4.57;3.10;;;;;;;;;;6096752;23;20010;-79
2023/11/03 04:00:41;;;;;;;3.05;2.67;;;;;;;;;;6096685;23;20391;-78
2023/11/03 04:03:07;;;;;;;2.72;2.63;;;;;;;;;;6048499;23;20072;-79
2023/11/03 04:05:33;;;;;;;2.95;2.75;;;;;;;;;;6122813;23;20017;-78
2023/11/03 04:07:59;;;;;;;2.70;2.60;;;;;;;;;;6096811;23;20018;-78
2023/11/03 04:10:25;;;;;;;3.20;2.97;;;;;;;;;;6096663;23;20041;-78
2023/11/03 04:12:52;;;;;;;3.28;3.00;;;;;;;;;;6096900;23;20068;-77
2023/11/03 04:15:17;;;;;;;2.13;2.03;;;;;;;;;;6122905;23;20018;-77
2023/11/03 04:17:43;;;;;;;3.67;2.50;;;;;;;;;;6096901;23;20018;-77
2023/11/03 04:20:10;;;;;;;6.45;3.80;;;;;;;;;;6123048;23;20021;-78
2023/11/03 04:22:36;;;;;;;3.90;3.70;;;;;;;;;;6072803;23;20459;-78
2023/11/03 04:25:02;;;;;;;3.53;3.33;;;;;;;;;;6123658;23;20065;-80
2023/11/03 04:27:30;;;;;;;3.70;3.40;;;;;;;;;;6096875;23;20021;-79
2023/11/03 04:29:56;;;;;;;3.20;3.00;;;;;;;;;;6073205;23;20332;-79
2023/11/03 04:32:22;;;;;;;6.18;2.28;;;;;;;;;;6091190;23;20029;-79
2023/11/03 04:34:48;;;;;;;2.95;2.65;;;;;;;;;;6093643;23;20025;-79
2023/11/03 04:37:14;;;;;;;6.75;2.35;;;;;;;;;;6114164;23;20097;-79
2023/11/03 04:39:39;;;;;;;3.65;2.25;;;;;;;;;;6115489;23;20034;-79
2023/11/03 04:42:05;;;;;;;2.85;2.65;;;;;;;;;;6104369;23;20018;-79
2023/11/03 04:44:31;;;;;;;2.92;2.70;;;;;;;;;;6093138;23;20010;-78
2023/11/03 04:46:57;;;;;;;3.00;2.80;;;;;;;;;;6096039;23;20440;-79
2023/11/03 04:49:24;;;;;;;3.85;3.00;;;;;;;;;;6092563;23;20015;-79
2023/11/03 04:51:50;;;;;;;3.25;2.78;;;;;;;;;;6092602;23;20073;-79
2023/11/03 04:54:16;;;;;;;3.13;2.92;;;;;;;;;;6091363;23;20018;-79
2023/11/03 04:56:44;;;;;;;2.65;2.50;;;;;;;;;;6091013;23;20015;-79
2023/11/03 04:59:11;;;;;;;5.10;4.10;;;;;;;;;;6092104;23;20011;-79
2023/11/03 05:01:36;;;;;;;4.07;3.78;;;;;;;;;;6115251;23;20022;-79
2023/11/03 05:04:03;;;;;;;5.47;4.97;;;;;;;;;;6091134;23;20014;-79
2023/11/03 05:06:29;;;;;;;7.90;6.47;;;;;;;;;;6090729;23;20026;-78
2023/11/03 05:08:54;;;;;;;8.90;8.15;;;;;;;;;;6092648;23;20015;-79
2023/11/03 05:11:21;;;;;;;8.20;7.60;;;;;;;;;;6092409;23;20100;-79
2023/11/03 05:13:48;;;;;;;6.47;5.97;;;;;;;;;;6093207;23;20018;-78
2023/11/03 05:16:14;;;;;;;6.28;5.88;;;;;;;;;;6092357;23;20431;-78
2023/11/03 05:18:40;;;;;;;4.53;4.22;;;;;;;;;;6115410;23;20014;-79
2023/11/03 05:21:07;;;;;;;4.03;3.35;;;;;;;;;;6092633;23;20025;-78
2023/11/03 05:23:33;;;;;;;3.80;3.60;;;;;;;;;;6090746;23;20022;-78
2023/11/03 05:25:59;;;;;;;5.45;3.75;;;;;;;;;;6115303;23;20022;-78
2023/11/03 05:28:25;;;;;;;2.97;2.78;;;;;;;;;;6092268;23;20455;-77
2023/11/03 05:30:51;;;;;;;5.35;3.20;;;;;;;;;;6098145;23;20010;-79
2023/11/03 05:33:17;;;;;;;3.00;2.85;;;;;;;;;;6097129;23;20089;-80
2023/11/03 05:35:44;;;;;;;4.82;3.70;;;;;;;;;;6072834;23;20076;-81
2023/11/03 05:38:10;;;;;;;3.65;3.35;;;;;;;;;;6097170;23;20014;-78
2023/11/03 05:40:36;;;;;;;3.80;3.50;;;;;;;;;;6122892;23;20014;-77
2023/11/03 05:43:02;;;;;;;3.50;3.30;;;;;;;;;;6100843;23;20514;-78
2023/11/03 05:45:28;;;;;;;4.05;3.75;;;;;;;;;;6096635;23;20018;-78
2023/11/03 05:47:54;;;;;;;3.45;3.25;;;;;;;;;;6073997;23;20050;-78
2023/11/03 05:50:20;;;;;;;8.10;3.47;;;;;;;;;;6121713;23;20107;-78
2023/11/03 05:52:46;;;;;;;3.78;3.50;;;;;;;;;;6124263;23;20455;-78
2023/11/03 05:55:12;;;;;;;3.55;3.30;;;;;;;;;;6075079;23;20152;-75
2023/11/03 05:57:38;;;;;;;4.15;3.75;;;;;;;;;;6120711;23;20021;-75
2023/11/03 06:00:08;;;;;;;4.03;3.72;;;;;;;;;;6123340;23;20018;-74
2023/11/03 06:02:36;;;;;;;4.90;4.50;;;;;;;;;;6123344;23;20014;-74
2023/11/03 06:05:03;;;;;;;4.80;4.50;;;;;;;;;;6121878;23;20312;-74
2023/11/03 06:07:30;;;;;;;4.20;3.80;;;;;;;;;;6120792;23;20462;-74
2023/11/03 06:09:56;;;;;;;7.35;6.75;;;;;;;;;;6123371;23;20014;-73
2023/11/03 06:12:22;;;;;;;4.65;4.35;;;;;;;;;;6097229;23;20098;-74
2023/11/03 06:14:48;;;;;;;9.52;8.65;;;;;;;;;;6123448;23;20042;-73
2023/11/03 06:17:14;;;;;;;7.80;7.10;;;;;;;;;;6122832;23;20361;-73
2023/11/03 06:19:40;;;;;;;5.28;4.90;;;;;;;;;;6121774;23;20395;-74
2023/11/03 06:22:07;;;;;;;3.28;3.08;;;;;;;;;;6075929;23;20033;-73
2023/11/03 06:24:33;;;;;;;5.47;4.90;;;;;;;;;;6126925;23;20013;-74
2023/11/03 06:26:59;;;;;;;6.90;6.30;;;;;;;;;;6100797;23;20022;-73
2023/11/03 06:29:26;;;;;;;6.65;6.15;;;;;;;;;;6073268;23;20830;-73
2023/11/03 06:31:52;;;;;;;5.82;5.40;;;;;;;;;;6122139;23;20022;-73
2023/11/03 06:34:19;;;;;;;5.15;4.75;;;;;;;;;;6123089;23;20021;-73
2023/11/03 06:36:45;;;;;;;7.75;7.05;;;;;;;;;;6123424;23;20109;-75
2023/11/03 06:39:11;;;;;;;5.80;5.40;;;;;;;;;;6122964;23;20014;-75
2023/11/03 06:41:37;;;;;;;6.80;6.20;;;;;;;;;;6122601;23;20096;-73
2023/11/03 06:44:05;;;;;;;7.10;6.40;;;;;;;;;;6123872;23;20045;-74
2023/11/03 06:46:31;;;;;;;6.13;5.63;;;;;;;;;;6098136;23;20026;-74
2023/11/03 06:48:57;;;;;;;6.07;5.63;;;;;;;;;;6123678;23;20006;-74
2023/11/03 06:51:25;;;;;;;8.63;6.07;;;;;;;;;;6122888;23;20040;-73
2023/11/03 06:53:51;;;;;;;7.10;6.40;;;;;;;;;;6124372;23;20010;-73
2023/11/03 06:56:17;;;;;;;7.78;7.18;;;;;;;;;;6124301;23;20018;-74
2023/11/03 06:58:43;;;;;;;8.00;7.30;;;;;;;;;;6105472;23;20053;-74
2023/11/03 07:01:09;;;;;;;6.82;6.22;;;;;;;;;;6110296;23;20021;-73
2023/11/03 07:03:35;;;;;;;5.75;5.28;;;;;;;;;;6133117;23;20009;-75
2023/11/03 07:06:03;;;;;;;6.57;6.07;;;;;;;;;;6108135;23;20017;-74
2023/11/03 07:08:30;;;;;;;5.82;5.43;;;;;;;;;;6124319;23;20018;-75
2023/11/03 07:10:58;;;;;;;5.78;5.28;;;;;;;;;;6123220;23;20427;-73
2023/11/03 07:13:25;;;;;;;6.15;5.75;;;;;;;;;;6097037;23;20025;-74
2023/11/03 07:15:51;;;;;;;6.65;6.05;;;;;;;;;;6097242;23;20018;-73
2023/11/03 07:18:17;;;;;;;9.65;7.05;;;;;;;;;;6122689;23;20014;-73
2023/11/03 07:20:43;;;;;;;6.72;5.97;;;;;;;;;;6123138;23;20021;-74
2023/11/03 07:23:11;;;;;;;8.18;7.50;;;;;;;;;;6125567;23;20009;-74
2023/11/03 07:25:37;;;;;;;8.48;7.80;;;;;;;;;;6126804;23;20064;-74
2023/11/03 07:28:04;;;;;;;9.90;9.00;;;;;;;;;;6127365;23;20024;-74
2023/11/03 07:30:30;;;;;;;10.38;9.50;;;;;;;;;;6125856;23;20062;-73
2023/11/03 07:32:57;;;;;;;7.30;6.60;;;;;;;;;;6142820;23;20017;-73
2023/11/03 07:35:23;;;;;;;8.20;7.50;;;;;;;;;;6133139;23;20033;-74
2023/11/03 07:37:49;;;;;;;8.23;7.43;;;;;;;;;;6075301;23;20438;-72
2023/11/03 07:40:15;;;;;;;8.60;7.45;;;;;;;;;;6126353;23;20485;-73
2023/11/03 07:42:43;;;;;;;11.70;8.88;;;;;;;;;;6124055;23;20021;-74
2023/11/03 07:45:11;;;;;;;12.23;11.23;;;;;;;;;;6073315;23;20049;-73
2023/11/03 07:47:37;;;;;;;13.82;10.82;;;;;;;;;;6121103;23;20105;-73
2023/11/03 07:50:05;;;;;;;8.40;7.35;;;;;;;;;;6121706;23;20014;-74
2023/11/03 07:52:31;;;;;;;10.80;9.73;;;;;;;;;;6071891;23;20402;-73
2023/11/03 07:54:57;;;;;;;9.27;8.20;;;;;;;;;;6122294;23;20014;-73
2023/11/03 07:57:24;;;;;;;7.20;6.50;;;;;;;;;;6096571;23;20010;-73
2023/11/03 07:59:51;;;;;;;8.90;8.10;;;;;;;;;;6122140;23;20014;-74
2023/11/03 08:02:17;;;;;;;8.38;7.68;;;;;;;;;;6120385;23;20044;-73
2023/11/03 08:04:43;;;;;;;10.55;9.32;;;;;;;;;;6095469;23;20018;-74
2023/11/03 08:07:09;;;;;;;15.65;10.30;;;;;;;;;;6121426;23;20487;-73
2023/11/03 08:09:35;;;;;;;9.73;8.80;;;;;;;;;;6118862;23;20105;-74
2023/11/03 08:12:02;;;;;;;8.43;7.72;;;;;;;;;;6122084;23;20018;-73
2023/11/03 08:14:29;;;;;;;11.60;7.10;;;;;;;;;;6121000;23;20014;-74
2023/11/03 08:16:55;;;;;;;6.93;6.18;;;;;;;;;;6096320;23;20014;-73
2023/11/03 08:19:21;;;;;;;6.85;6.35;;;;;;;;;;6121605;23;20065;-73
2023/11/03 08:21:48;;;;;;;8.68;7.88;;;;;;;;;;6121212;23;20020;-73
2023/11/03 08:24:14;;;;;;;11.63;10.55;;;;;;;;;;6121600;23;20013;-74
2023/11/03 08:26:41;;;;;;;14.45;12.95;;;;;;;;;;6120624;23;20022;-74
2023/11/03 08:29:10;;;;;;;15.63;11.27;;;;;;;;;;6097960;23;20021;-73
2023/11/03 08:31:36;;;;;;;5.97;5.50;;;;;;;;;;6122741;23;20018;-74
2023/11/03 08:34:04;;;;;;;7.35;5.18;;;;;;;;;;6069167;23;20565;-74
2023/11/03 08:36:31;;;;;;;4.90;4.60;;;;;;;;;;6123029;23;20060;-73
2023/11/03 08:38:58;;;;;;;8.52;3.50;;;;;;;;;;6124393;23;20474;-73
2023/11/03 08:41:27;;;;;;;2.85;2.70;;;;;;;;;;6122843;23;20018;-74
2023/11/03 08:43:53;;;;;;;4.65;4.28;;;;;;;;;;6097491;23;20009;-73
2023/11/03 08:46:20;;;;;;;5.03;4.25;;;;;;;;;;6121770;23;20049;-73
2023/11/03 08:48:46;;;;;;;4.07;3.88;;;;;;;;;;6120213;23;20014;-73
2023/11/03 08:51:15;;;;;;;4.70;4.30;;;;;;;;;;6119260;23;20017;-74
2023/11/03 08:53:43;;;;;;;4.43;4.13;;;;;;;;;;6120866;23;20014;-73
2023/11/03 08:56:14;;;;;;;4.32;4.03;;;;;;;;;;6093277;23;20073;-74
2023/11/03 08:58:41;;;;;;;4.20;3.90;;;;;;;;;;6096237;23;20355;-74
2023/11/03 09:01:07;;;;;;;4.30;4.00;;;;;;;;;;6071460;23;20020;-74
2023/11/03 09:03:42;;;;;;;4.40;3.72;;;;;;;;;;6096483;23;20025;-74
2023/11/03 09:06:12;;;;;;;3.65;3.45;;;;;;;;;;6121330;23;20018;-73
2023/11/03 09:08:38;;;;;;;3.25;2.67;;;;;;;;;;6093609;23;20081;-74
2023/11/03 09:11:04;;;;;;;5.10;3.40;;;;;;;;;;6118718;23;20017;-74
2023/11/03 09:13:31;;;;;;;4.18;3.88;;;;;;;;;;6095121;23;20089;-74
2023/11/03 09:15:57;;;;;;;6.55;3.78;;;;;;;;;;6120174;23;20018;-73
2023/11/03 09:18:26;;;;;;;4.32;3.92;;;;;;;;;;6121179;23;20013;-73
2023/11/03 09:20:53;;;;;;;8.75;4.28;;;;;;;;;;6121566;23;20013;-75
2023/11/03 09:23:20;;;;;;;7.78;4.35;;;;;;;;;;6121396;23;20010;-74
2023/11/03 09:25:47;;;;;;;6.10;5.60;;;;;;;;;;6122011;23;20017;-73
2023/11/03 09:28:14;;;;;;;7.75;7.05;;;;;;;;;;6097019;23;20105;-74
2023/11/03 09:30:42;;;;;;;11.07;7.75;;;;;;;;;;6096726;23;20395;-74
2023/11/03 09:33:08;;;;;;;8.18;7.50;;;;;;;;;;6072645;23;20192;-73
2023/11/03 09:35:35;;;;;;;7.25;6.57;;;;;;;;;;6072130;23;20013;-73
2023/11/03 09:38:03;;;;;;;12.93;7.40;;;;;;;;;;6097201;23;20044;-74
2023/11/03 09:40:31;;;;;;;10.35;7.03;;;;;;;;;;6123403;23;20010;-74
2023/11/03 09:42:58;;;;;;;6.85;6.18;;;;;;;;;;6123140;23;20046;-73
2023/11/03 09:45:26;;;;;;;5.05;4.63;;;;;;;;;;6074069;23;20014;-73
2023/11/03 09:47:52;;;;;;;6.13;4.53;;;;;;;;;;6050457;23;20026;-73
2023/11/03 09:50:19;;;;;;;4.35;4.05;;;;;;;;;;6073363;23;20018;-72
2023/11/03 09:52:47;;;;;;;5.00;4.55;;;;;;;;;;6096666;23;20014;-73
2023/11/03 09:55:15;;;;;;;7.68;5.40;;;;;;;;;;6097596;23;20014;-74
2023/11/03 09:57:45;;;;;;;7.23;5.80;;;;;;;;;;6097845;23;20014;-74
2023/11/03 10:00:19;;;;;;;5.03;4.72;;;;;;;;;;6096091;23;20025;-74
2023/11/03 10:02:47;;;;;;;5.45;4.95;;;;;;;;;;6121053;23;20612;-74
2023/11/03 10:05:18;;;;;;;8.10;7.40;;;;;;;;;;6098621;23;20014;-73
2023/11/03 10:08:00;;;;;;;7.00;6.50;;;;;;;;;;6121039;23;20021;-73
2023/11/03 10:10:31;;;;;;;5.90;4.95;;;;;;;;;;6097331;23;20490;-73
2023/11/03 10:13:00;;;;;;;4.95;4.30;;;;;;;;;;6085497;23;20024;-70
2023/11/03 10:15:28;;;;;;;5.78;5.28;;;;;;;;;;6071853;23;20470;-70
2023/11/03 10:17:54;;;;;;;5.20;4.80;;;;;;;;;;6072334;23;20415;-70
2023/11/03 10:20:22;;;;;;;5.13;4.82;;;;;;;;;;6122919;23;20014;-69
2023/11/03 10:22:48;;;;;;;5.05;4.72;;;;;;;;;;6097184;23;20013;-70
2023/11/03 10:25:16;;;;;;;4.40;4.10;;;;;;;;;;6122853;23;20025;-70
2023/11/03 10:27:42;;;;;;;4.70;4.32;;;;;;;;;;6135683;23;20025;-69
2023/11/03 10:30:11;;;;;;;5.10;4.70;;;;;;;;;;6078771;23;20775;-69
2023/11/03 10:32:38;;;;;;;4.20;3.90;;;;;;;;;;6074372;23;20143;-69
2023/11/03 10:35:05;;;;;;;8.52;6.80;;;;;;;;;;6073353;23;20016;-69
2023/11/03 10:37:34;;;;;;;7.18;6.35;;;;;;;;;;6097018;23;20014;-69
2023/11/03 10:40:00;;;;;;;5.97;5.47;;;;;;;;;;6073960;23;20018;-69
2023/11/03 10:42:28;;;;;;;6.25;5.75;;;;;;;;;;6122316;23;20025;-69
2023/11/03 10:44:56;;;;;;;6.65;6.05;;;;;;;;;;6074037;23;20009;-70
2023/11/03 10:47:26;;;;;;;5.50;5.10;;;;;;;;;;6123229;23;20030;-70
2023/11/03 10:50:06;;;;;;;7.03;6.27;;;;;;;;;;6097148;23;20033;-70
2023/11/03 10:52:50;;;;;;;6.32;5.72;;;;;;;;;;6097044;23;20207;-69
2023/11/03 10:55:31;;;;;;;6.25;5.05;;;;;;;;;;6123235;23;20025;-70
2023/11/03 10:57:58;;;;;;;6.13;5.65;;;;;;;;;;6122231;23;20106;-70
2023/11/03 11:00:27;;;;;;;5.47;4.90;;;;;;;;;;6123010;23;20010;-69
2023/11/03 11:03:14;;;;;;;5.90;4.75;;;;;;;;;;6123176;23;20018;-70
2023/11/03 11:05:51;;;;;;;4.57;4.18;;;;;;;;;;6122719;23;20016;-69
2023/11/03 11:08:17;;;;;;;5.97;5.47;;;;;;;;;;6123237;23;20021;-69
2023/11/03 11:10:46;;;;;;;10.02;7.90;;;;;;;;;;6072354;23;20014;-70
2023/11/03 11:13:17;;;;;;;11.45;10.02;;;;;;;;;;6097880;23;20018;-69
2023/11/03 11:16:02;;;;;;;8.88;8.00;;;;;;;;;;6096995;23;20490;-69
2023/11/03 11:18:30;;;;;;;8.48;7.65;;;;;;;;;;6123155;23;20462;-69
2023/11/03 11:21:03;;;;;;;9.82;8.85;;;;;;;;;;6123278;23;20018;-69
2023/11/03 11:23:33;;;;;;;15.52;10.40;;;;;;;;;;6097161;23;20018;-70
2023/11/03 11:26:02;;;;;;;8.25;7.55;;;;;;;;;;6074050;23;20336;-70
2023/11/03 11:28:35;;;;;;;7.20;6.25;;;;;;;;;;6096994;23;20022;-69
2023/11/03 11:31:20;;;;;;;8.27;5.78;;;;;;;;;;6122337;23;20031;-70
2023/11/03 11:34:06;;;;;;;5.15;4.80;;;;;;;;;;6095956;23;20041;-69
2023/11/03 11:36:33;;;;;;;5.57;5.07;;;;;;;;;;6122462;23;20085;-70
2023/11/03 11:38:59;;;;;;;5.50;5.00;;;;;;;;;;6121166;23;20100;-70
2023/11/03 11:41:29;;;;;;;4.60;4.18;;;;;;;;;;6122776;23;20016;-70
2023/11/03 11:43:55;;;;;;;6.57;4.47;;;;;;;;;;6119080;23;20020;-69
2023/11/03 11:46:22;;;;;;;5.30;4.40;;;;;;;;;;6071794;23;20029;-70
2023/11/03 11:48:48;;;;;;;5.72;5.20;;;;;;;;;;6120244;23;20017;-69
2023/11/03 11:51:14;;;;;;;5.68;5.07;;;;;;;;;;6072189;23;20025;-69
2023/11/03 11:53:40;;;;;;;5.28;4.75;;;;;;;;;;6121540;23;20013;-70
2023/11/03 11:56:06;;;;;;;5.55;4.30;;;;;;;;;;6072396;23;20017;-70
2023/11/03 11:58:32;;;;;;;6.40;4.18;;;;;;;;;;6094935;23;20061;-70
2023/11/03 12:01:01;;;;;;;4.05;3.75;;;;;;;;;;6093686;23;20021;-70
2023/11/03 12:03:28;;;;;;;8.77;4.93;;;;;;;;;;6121027;23;20018;-70
2023/11/03 12:05:54;;;;;;;4.88;4.00;;;;;;;;;;6095157;23;20021;-70
2023/11/03 12:08:22;;;;;;;4.80;4.38;;;;;;;;;;6095458;23;20014;-70
2023/11/03 12:10:48;;;;;;;8.65;5.05;;;;;;;;;;6094748;23;20018;-70
2023/11/03 12:13:15;;;;;;;4.75;4.30;;;;;;;;;;6094947;23;20146;-69
2023/11/03 12:15:41;;;;;;;5.90;4.05;;;;;;;;;;6119891;23;20013;-70
2023/11/03 12:18:08;;;;;;;4.53;4.13;;;;;;;;;;6120998;23;20073;-70
2023/11/03 12:20:37;;;;;;;4.57;4.15;;;;;;;;;;6096056;23;20016;-70
2023/11/03 12:23:04;;;;;;;8.10;4.45;;;;;;;;;;6122394;23;20049;-70
2023/11/03 12:25:30;;;;;;;5.60;4.07;;;;;;;;;;6122554;23;20497;-69
2023/11/03 12:27:58;;;;;;;5.10;4.70;;;;;;;;;;6122193;23;20414;-70
2023/11/03 12:30:24;;;;;;;5.40;4.25;;;;;;;;;;6122220;23;20014;-70
2023/11/03 12:33:10;;;;;;;5.47;3.97;;;;;;;;;;6100630;23;20113;-70
2023/11/03 12:35:36;;;;;;;6.85;3.88;;;;;;;;;;6096430;23;20442;-70
2023/11/03 12:38:02;;;;;;;5.15;4.10;;;;;;;;;;6072352;23;20117;-70
2023/11/03 12:40:28;;;;;;;4.25;3.25;;;;;;;;;;6119479;23;20105;-70
2023/11/03 12:43:08;;;;;;;4.20;3.75;;;;;;;;;;6122463;23;20070;-69
2023/11/03 12:45:34;;;;;;;6.35;3.70;;;;;;;;;;6119036;23;20014;-70
2023/11/03 12:48:04;;;;;;;4.25;3.80;;;;;;;;;;6122226;23;20029;-70
2023/11/03 12:50:33;;;;;;;9.45;4.00;;;;;;;;;;6096234;23;20014;-70
2023/11/03 12:53:03;;;;;;;5.57;3.63;;;;;;;;;;6097798;23;20010;-70
2023/11/03 12:55:34;;;;;;;7.63;4.00;;;;;;;;;;6096132;23;20412;-69
2023/11/03 12:58:10;;;;;;;6.75;3.70;;;;;;;;;;6073186;23;20077;-70
2023/11/03 13:00:40;;;;;;;4.40;3.45;;;;;;;;;;6098224;23;20013;-70
2023/11/03 13:03:06;;;;;;;6.50;3.90;;;;;;;;;;6124318;23;20451;-70
2023/11/03 13:05:33;;;;;;;4.10;2.65;;;;;;;;;;6124965;23;20014;-70
2023/11/03 13:07:59;;;;;;;6.07;3.70;;;;;;;;;;6098247;23;20362;-70
2023/11/03 13:10:28;;;;;;;6.03;5.53;;;;;;;;;;6121734;23;20025;-69
2023/11/03 13:12:55;;;;;;;5.82;4.63;;;;;;;;;;6098298;23;20018;-70
2023/11/03 13:15:21;;;;;;;4.47;4.07;;;;;;;;;;6123991;23;20013;-70
2023/11/03 13:17:48;;;;;;;7.40;5.13;;;;;;;;;;6122843;23;20010;-70
2023/11/03 13:20:18;;;;;;;5.15;4.13;;;;;;;;;;6128403;23;20549;-69
2023/11/03 13:22:44;;;;;;;4.65;4.25;;;;;;;;;;6133204;23;20044;-70
2023/11/03 13:25:13;;;;;;;4.47;4.05;;;;;;;;;;6121301;23;20049;-70
2023/11/03 13:27:42;;;;;;;4.15;3.85;;;;;;;;;;6120096;23;20458;-70
2023/11/03 13:30:08;;;;;;;4.88;4.30;;;;;;;;;;6120426;23;20017;-71
2023/11/03 13:32:37;;;;;;;3.28;3.08;;;;;;;;;;6120127;23;20058;-71
2023/11/03 13:35:05;;;;;;;4.22;3.85;;;;;;;;;;6119553;23;20046;-70
2023/11/03 13:37:34;;;;;;;;;;;;;;;;;;6094591;23;20014;-70
2023/11/03 13:40:05;;;;;;;5.60;3.60;;;;;;;;;;6123433;23;19963;-70
2023/11/03 13:42:34;;;;;;;4.53;4.10;;;;;;;;;;6052415;23;20017;-70
2023/11/03 13:45:03;;;;;;;5.72;3.15;;;;;;;;;;6098716;23;20383;-71
2023/11/03 13:47:40;;;;;;;3.50;3.30;;;;;;;;;;6123881;23;20101;-72
2023/11/03 13:50:07;;;;;;;4.00;3.70;;;;;;;;;;6123493;23;20061;-71
2023/11/03 13:52:34;;;;;;;3.00;2.78;;;;;;;;;;6098128;23;20024;-70
2023/11/03 13:55:01;;;;;;;3.88;3.60;;;;;;;;;;6123899;23;20045;-70
2023/11/03 13:57:30;;;;;;;4.47;4.18;;;;;;;;;;6123714;23;20093;-70
2023/11/03 13:59:57;;;;;;;4.20;3.85;;;;;;;;;;6098361;23;20006;-70
2023/11/03 14:02:28;;;;;;;4.35;4.05;;;;;;;;;;6124045;23;20041;-70
2023/11/03 14:04:54;;;;;;;6.10;4.25;;;;;;;;;;6097710;23;20549;-70
2023/11/03 14:07:20;;;;;;;7.32;4.97;;;;;;;;;;6123509;23;20077;-70
2023/11/03 14:09:47;;;;;;;4.75;4.35;;;;;;;;;;6123378;23;20077;-70
2023/11/03 14:12:13;;;;;;;9.13;4.57;;;;;;;;;;6097503;23;20062;-70
2023/11/03 14:14:39;;;;;;;4.90;4.60;;;;;;;;;;6097288;23;20014;-70
2023/11/03 14:17:08;;;;;;;6.70;3.55;;;;;;;;;;6097692;23;20021;-70
2023/11/03 14:19:34;;;;;;;3.65;3.35;;;;;;;;;;6123133;23;20010;-71
2023/11/03 14:22:02;;;;;;;4.78;4.38;;;;;;;;;;6123937;23;20013;-71
2023/11/03 14:24:28;;;;;;;6.47;4.55;;;;;;;;;;6123268;23;20024;-70
2023/11/03 14:26:57;;;;;;;5.35;4.20;;;;;;;;;;6120900;23;20488;-70
2023/11/03 14:29:23;;;;;;;4.40;4.10;;;;;;;;;;6122774;23;20017;-71
2023/11/03 14:31:51;;;;;;;5.75;5.25;;;;;;;;;;6122703;23;20092;-70
2023/11/03 14:34:23;;;;;;;4.28;3.88;;;;;;;;;;6097252;23;20037;-71
2023/11/03 14:36:50;;;;;;;4.10;3.80;;;;;;;;;;6049987;23;20020;-71
2023/11/03 14:39:16;;;;;;;2.30;2.20;;;;;;;;;;6098704;23;20525;-71
2023/11/03 14:41:46;;;;;;;4.75;3.58;;;;;;;;;;6124350;23;20061;-72
2023/11/03 14:44:16;;;;;;;4.97;4.68;;;;;;;;;;6097961;23;20006;-71